createdAt,value
2022-11-20T00:01:26.570Z,24.23
2022-11-20T00:03:55.150Z,24.60
2022-11-20T00:06:22.425Z,24.75
2022-11-20T00:08:49.541Z,24.38
2022-11-20T00:11:18.956Z,24.15
2022-11-20T00:13:47.036Z,23.45
2022-11-20T00:16:17.618Z,22.15
2022-11-20T00:18:45.626Z,25.35
2022-11-20T00:21:15.018Z,23.90
2022-11-20T00:23:42.613Z,23.25
2022-11-20T00:26:12.009Z,22.15
2022-11-20T00:28:38.666Z,25.00
2022-11-20T00:31:14.398Z,24.27
2022-11-20T00:33:42.019Z,22.65
2022-11-20T00:36:11.365Z,21.17
2022-11-20T00:38:38.247Z,21.13
2022-11-20T00:41:07.676Z,24.60
2022-11-20T00:43:34.518Z,19.13
2022-11-20T00:46:05.405Z,23.13
2022-11-20T00:48:32.551Z,24.80
2022-11-20T00:50:59.727Z,22.55
2022-11-20T00:53:26.668Z,26.02
2022-11-20T00:55:55.110Z,26.80
2022-11-20T00:58:22.742Z,22.27
2022-11-20T01:00:50.586Z,24.13
2022-11-20T01:03:22.714Z,21.40
2022-11-20T01:05:52.406Z,26.77
2022-11-20T01:08:19.014Z,25.55
2022-11-20T01:10:45.520Z,25.85
2022-11-20T01:13:30.779Z,25.73
2022-11-20T01:16:03.944Z,23.00
2022-11-20T01:18:30.604Z,26.88
2022-11-20T01:21:02.068Z,27.42
2022-11-20T01:23:31.847Z,23.35
2022-11-20T01:25:59.960Z,28.02
2022-11-20T01:28:26.362Z,26.63
2022-11-20T01:30:53.957Z,27.23
2022-11-20T01:33:20.353Z,27.20
2022-11-20T01:35:46.899Z,23.13
2022-11-20T01:38:13.291Z,28.25
2022-11-20T01:40:39.878Z,24.52
2022-11-20T01:43:23.445Z,27.38
2022-11-20T01:46:01.979Z,24.13
2022-11-20T01:48:39.660Z,23.23
2022-11-20T01:51:13.775Z,23.45
2022-11-20T01:53:40.564Z,24.83
2022-11-20T01:56:14.927Z,28.35
2022-11-20T01:58:49.661Z,23.98
2022-11-20T02:01:16.472Z,24.45
2022-11-20T02:03:44.846Z,25.80
2022-11-20T02:06:20.563Z,23.73
2022-11-20T02:08:47.163Z,26.92
2022-11-20T02:11:13.882Z,26.30
2022-11-20T02:13:44.253Z,23.00
2022-11-20T02:16:26.761Z,23.35
2022-11-20T02:18:55.736Z,26.95
2022-11-20T02:21:41.215Z,23.38
2022-11-20T02:26:54.063Z,25.58
2022-11-20T02:29:26.811Z,20.95
2022-11-20T02:31:56.870Z,25.58
2022-11-20T02:34:23.300Z,21.67
2022-11-20T02:36:51.641Z,21.60
2022-11-20T02:39:18.773Z,24.27
2022-11-20T02:41:45.519Z,25.05
2022-11-20T02:44:12.080Z,24.08
2022-11-20T02:46:38.470Z,24.23
2022-11-20T02:49:05.810Z,27.08
2022-11-20T02:51:33.354Z,24.35
2022-11-20T02:53:59.795Z,23.52
2022-11-20T02:56:26.639Z,26.35
2022-11-20T02:58:53.482Z,25.90
2022-11-20T03:01:20.046Z,23.58
2022-11-20T03:03:46.583Z,22.10
2022-11-20T03:06:14.790Z,26.33
2022-11-20T03:08:41.182Z,19.77
2022-11-20T03:11:08.612Z,24.25
2022-11-20T03:13:35.550Z,21.60
2022-11-20T03:16:14.234Z,23.58
2022-11-20T03:18:42.058Z,22.13
2022-11-20T03:21:11.037Z,20.58
2022-11-20T03:23:38.391Z,26.02
2022-11-20T03:26:10.086Z,23.13
2022-11-20T03:28:36.677Z,24.38
2022-11-20T03:31:09.498Z,22.67
2022-11-20T03:33:35.896Z,21.00
2022-11-20T03:36:08.489Z,21.63
2022-11-20T03:38:35.776Z,23.48
2022-11-20T03:41:08.207Z,23.38
2022-11-20T03:43:34.989Z,26.42
2022-11-20T03:46:01.821Z,23.48
2022-11-20T03:48:28.368Z,25.52
2022-11-20T03:51:11.639Z,23.45
2022-11-20T03:53:38.715Z,22.98
2022-11-20T03:56:06.105Z,24.45
2022-11-20T03:58:35.041Z,25.67
2022-11-20T04:01:18.853Z,25.27
2022-11-20T04:03:46.147Z,29.00
2022-11-20T04:06:17.606Z,22.98
2022-11-20T04:08:44.378Z,23.58
2022-11-20T04:11:19.877Z,29.50
2022-11-20T04:13:54.800Z,28.38
2022-11-20T04:16:22.503Z,27.80
2022-11-20T04:18:53.840Z,26.05
2022-11-20T04:21:20.463Z,27.92
2022-11-20T04:23:46.944Z,26.35
2022-11-20T04:26:13.746Z,23.83
2022-11-20T04:28:40.691Z,29.35
2022-11-20T04:31:10.116Z,25.80
2022-11-20T04:33:37.695Z,27.75
2022-11-20T04:36:07.206Z,24.88
2022-11-20T04:38:34.357Z,31.13
2022-11-20T04:41:02.458Z,26.63
2022-11-20T04:43:29.620Z,29.98
2022-11-20T04:45:57.656Z,34.22
2022-11-20T04:48:25.158Z,29.00
2022-11-20T04:50:52.436Z,29.42
2022-11-20T04:53:19.462Z,33.53
2022-11-20T04:55:46.169Z,31.27
2022-11-20T04:58:13.501Z,30.65
2022-11-20T05:00:40.309Z,30.70
2022-11-20T05:03:06.724Z,32.05
2022-11-20T05:05:35.371Z,30.42
2022-11-20T05:08:01.816Z,28.80
2022-11-20T05:10:28.714Z,31.50
2022-11-20T05:12:55.114Z,31.70
2022-11-20T05:15:21.680Z,35.47
2022-11-20T05:17:51.495Z,32.45
2022-11-20T05:20:18.529Z,32.50
2022-11-20T05:22:45.189Z,30.95
2022-11-20T05:25:12.500Z,36.08
2022-11-20T05:27:38.917Z,30.02
2022-11-20T05:30:06.420Z,31.00
2022-11-20T05:32:33.092Z,30.48
2022-11-20T05:34:59.559Z,42.05
2022-11-20T05:37:26.180Z,38.20
2022-11-20T05:39:52.578Z,32.65
2022-11-20T05:42:31.034Z,32.92
2022-11-20T05:45:02.972Z,34.50
2022-11-20T05:47:33.753Z,35.05
2022-11-20T05:50:00.346Z,29.30
2022-11-20T05:52:30.269Z,38.90
2022-11-20T05:54:57.029Z,28.05
2022-11-20T05:57:23.399Z,33.05
2022-11-20T05:59:49.910Z,36.40
2022-11-20T06:02:16.396Z,36.90
2022-11-20T06:04:42.840Z,34.60
2022-11-20T06:07:09.383Z,30.25
2022-11-20T06:09:35.866Z,32.88
2022-11-20T06:12:04.630Z,36.30
2022-11-20T06:14:31.100Z,38.45
2022-11-20T06:16:57.678Z,36.50
2022-11-20T06:19:24.340Z,36.40
2022-11-20T06:21:52.032Z,32.90
2022-11-20T06:24:18.724Z,33.58
2022-11-20T06:26:45.716Z,38.80
2022-11-20T06:29:12.256Z,32.35
2022-11-20T06:31:38.842Z,32.33
2022-11-20T06:34:07.002Z,35.78
2022-11-20T06:36:34.423Z,30.67
2022-11-20T06:39:01.975Z,25.25
2022-11-20T06:41:28.949Z,24.48
2022-11-20T06:43:55.520Z,20.13
2022-11-20T06:46:23.083Z,23.38
2022-11-20T06:48:50.459Z,24.35
2022-11-20T06:51:19.477Z,25.40
2022-11-20T06:53:46.316Z,22.00
2022-11-20T06:56:12.980Z,25.90
2022-11-20T06:58:39.417Z,26.17
2022-11-20T07:01:10.080Z,24.73
2022-11-20T07:03:37.355Z,22.70
2022-11-20T07:06:05.784Z,21.65
2022-11-20T07:08:32.903Z,23.52
2022-11-20T07:11:04.459Z,24.95
2022-11-20T07:13:30.921Z,24.90
2022-11-20T07:16:05.554Z,24.40
2022-11-20T07:18:31.959Z,26.27
2022-11-20T07:21:06.036Z,24.40
2022-11-20T07:23:32.768Z,29.17
2022-11-20T07:26:03.955Z,27.60
2022-11-20T07:28:30.286Z,22.02
2022-11-20T07:30:56.794Z,28.67
2022-11-20T07:33:23.173Z,28.35
2022-11-20T07:35:49.733Z,27.52
2022-11-20T07:38:16.148Z,28.77
2022-11-20T07:40:42.772Z,24.50
2022-11-20T07:43:09.215Z,29.48
2022-11-20T07:45:37.945Z,25.65
2022-11-20T07:48:04.852Z,27.92
2022-11-20T07:50:31.327Z,24.33
2022-11-20T07:53:05.722Z,29.67
2022-11-20T07:55:33.338Z,24.58
2022-11-20T07:58:00.186Z,28.50
2022-11-20T08:00:27.667Z,24.00
2022-11-20T08:02:54.332Z,26.05
2022-11-20T08:05:21.225Z,24.63
2022-11-20T08:07:47.927Z,27.60
2022-11-20T08:10:16.923Z,29.23
2022-11-20T08:13:11.762Z,30.23
2022-11-20T08:15:40.228Z,38.33
2022-11-20T08:20:59.222Z,37.17
2022-11-20T08:23:25.645Z,43.80
2022-11-20T08:25:52.249Z,37.85
2022-11-20T08:28:21.586Z,37.25
2022-11-20T08:30:49.202Z,34.90
2022-11-20T08:33:15.678Z,41.85
2022-11-20T08:35:42.664Z,38.40
2022-11-20T08:38:09.901Z,32.65
2022-11-20T08:40:36.437Z,43.47
2022-11-20T08:43:02.915Z,43.53
2022-11-20T08:45:33.712Z,35.47
2022-11-20T08:48:02.077Z,39.10
2022-11-20T08:50:28.596Z,32.95
2022-11-20T08:52:54.965Z,35.97
2022-11-20T08:55:21.549Z,39.45
2022-11-20T08:57:50.885Z,30.67
2022-11-20T09:00:18.019Z,29.10
2022-11-20T09:02:44.478Z,32.20
2022-11-20T09:05:10.911Z,34.20
2022-11-20T09:07:37.567Z,33.42
2022-11-20T09:10:23.083Z,33.53
2022-11-20T09:12:51.510Z,38.97
2022-11-20T09:15:18.646Z,34.92
2022-11-20T09:17:55.860Z,40.17
2022-11-20T09:20:22.689Z,35.95
2022-11-20T09:22:49.256Z,35.25
2022-11-20T09:25:15.882Z,36.50
2022-11-20T09:27:46.661Z,35.78
2022-11-20T09:30:14.972Z,36.33
2022-11-20T09:32:41.702Z,39.28
2022-11-20T09:35:09.007Z,38.35
2022-11-20T09:37:35.910Z,35.53
2022-11-20T09:40:02.950Z,36.33
2022-11-20T09:42:38.908Z,35.78
2022-11-20T09:45:22.627Z,37.10
2022-11-20T09:48:10.105Z,37.10
2022-11-20T09:50:55.103Z,33.22
2022-11-20T09:53:36.770Z,32.88
2022-11-20T09:56:05.770Z,34.35
2022-11-20T09:58:43.690Z,37.20
2022-11-20T10:01:15.145Z,33.53
2022-11-20T10:04:05.357Z,34.20
2022-11-20T10:06:34.731Z,32.67
2022-11-20T10:09:13.128Z,31.42
2022-11-20T10:12:07.668Z,27.13
2022-11-20T10:14:42.706Z,31.80
2022-11-20T10:17:31.104Z,28.38
2022-11-20T10:20:16.946Z,25.45
2022-11-20T10:22:46.332Z,26.88
2022-11-20T10:25:19.090Z,31.98
2022-11-20T10:28:07.368Z,26.42
2022-11-20T10:30:40.324Z,25.73
2022-11-20T10:33:22.028Z,30.20
2022-11-20T10:36:17.873Z,28.15
2022-11-20T10:38:50.470Z,26.48
2022-11-20T10:41:27.242Z,29.63
2022-11-20T10:44:36.539Z,26.10
2022-11-20T10:47:05.735Z,27.92
2022-11-20T10:49:35.093Z,29.20
2022-11-20T10:52:20.353Z,28.15
2022-11-20T10:55:07.870Z,29.70
2022-11-20T10:58:10.333Z,29.10
2022-11-20T11:00:36.795Z,30.20
2022-11-20T11:03:04.061Z,28.33
2022-11-20T11:05:50.942Z,30.00
2022-11-20T11:08:20.035Z,23.35
2022-11-20T11:10:56.117Z,25.70
2022-11-20T11:13:24.857Z,26.77
2022-11-20T11:15:52.141Z,25.25
2022-11-20T11:18:31.080Z,33.13
2022-11-20T11:21:00.441Z,25.38
2022-11-20T11:23:33.078Z,26.50
2022-11-20T11:26:01.770Z,26.98
2022-11-20T11:28:29.339Z,25.75
2022-11-20T11:30:56.850Z,25.48
2022-11-20T11:33:26.146Z,25.77
2022-11-20T11:35:59.158Z,29.50
2022-11-20T11:38:30.837Z,33.42
2022-11-20T11:40:58.525Z,30.27
2022-11-20T11:43:46.450Z,31.88
2022-11-20T11:46:21.720Z,32.55
2022-11-20T11:49:09.453Z,26.52
2022-11-20T11:51:47.531Z,35.42
2022-11-20T11:54:24.979Z,30.13
2022-11-20T11:56:52.564Z,25.98
2022-11-20T12:00:14.995Z,32.75
2022-11-20T12:02:50.259Z,31.17
2022-11-20T12:05:24.475Z,34.08
2022-11-20T12:08:11.161Z,30.53
2022-11-20T12:10:42.156Z,30.20
2022-11-20T12:13:33.695Z,30.88
2022-11-20T12:16:01.573Z,31.40
2022-11-20T12:18:29.281Z,28.55
2022-11-20T12:21:24.139Z,27.98
2022-11-20T12:23:59.682Z,27.60
2022-11-20T12:26:35.256Z,30.33
2022-11-20T12:29:24.877Z,31.55
2022-11-20T12:32:16.583Z,26.52
2022-11-20T12:34:46.709Z,25.08
2022-11-20T12:37:42.041Z,27.55
2022-11-20T12:40:41.162Z,21.65
2022-11-20T12:43:44.361Z,24.60
2022-11-20T12:46:25.978Z,22.63
2022-11-20T12:49:07.566Z,25.25
2022-11-20T12:51:52.821Z,22.25
2022-11-20T12:54:54.100Z,27.83
2022-11-20T12:57:45.662Z,25.33
2022-11-20T13:00:19.591Z,26.77
2022-11-20T13:03:14.244Z,26.85
2022-11-20T13:06:19.604Z,21.67
2022-11-20T13:08:54.274Z,25.00
2022-11-20T13:11:49.103Z,24.27
2022-11-20T13:14:45.893Z,24.52
2022-11-20T13:17:23.220Z,25.70
2022-11-20T13:19:59.614Z,25.58
2022-11-20T13:22:43.757Z,21.63
2022-11-20T13:25:16.225Z,26.08
2022-11-20T13:27:49.592Z,21.95
2022-11-20T13:30:19.153Z,23.88
2022-11-20T13:32:56.018Z,26.58
2022-11-20T13:35:34.786Z,26.60
2022-11-20T13:38:11.687Z,25.70
2022-11-20T13:40:53.384Z,29.00
2022-11-20T13:43:23.084Z,26.35
2022-11-20T13:46:01.762Z,29.23
2022-11-20T13:48:41.389Z,26.63
2022-11-20T13:51:55.856Z,23.20
2022-11-20T13:54:52.862Z,23.98
2022-11-20T13:57:54.735Z,24.85
2022-11-20T14:00:23.554Z,24.52
2022-11-20T14:03:08.455Z,23.52
2022-11-20T14:05:39.433Z,26.17
2022-11-20T14:08:12.625Z,22.35
2022-11-20T14:10:40.380Z,26.70
2022-11-20T14:13:21.387Z,24.73
2022-11-20T14:15:47.882Z,23.58
2022-11-20T14:18:20.948Z,26.27
2022-11-20T14:20:47.764Z,30.70
2022-11-20T14:23:30.094Z,22.17
2022-11-20T14:25:56.997Z,26.30
2022-11-20T14:28:31.589Z,25.42
2022-11-20T14:30:58.661Z,26.25
2022-11-20T14:33:27.759Z,27.70
2022-11-20T14:35:57.214Z,28.77
2022-11-20T14:38:29.694Z,25.35
2022-11-20T14:41:07.143Z,25.95
2022-11-20T14:43:34.248Z,20.85
2022-11-20T14:46:07.062Z,24.80
2022-11-20T14:48:47.375Z,23.15
2022-11-20T14:51:42.212Z,20.52
2022-11-20T14:54:12.806Z,22.38
2022-11-20T14:56:39.650Z,19.45
2022-11-20T14:59:06.435Z,23.67
2022-11-20T15:01:35.113Z,20.60
2022-11-20T15:04:03.176Z,21.80
2022-11-20T15:06:30.488Z,30.67
2022-11-20T15:08:57.193Z,26.20
2022-11-20T15:11:31.782Z,30.85
2022-11-20T15:14:02.537Z,25.20
2022-11-20T15:16:29.142Z,26.60
2022-11-20T15:18:56.199Z,27.58
2022-11-20T15:21:23.064Z,29.08
2022-11-20T15:23:49.943Z,27.65
2022-11-20T15:26:27.131Z,25.70
2022-11-20T15:28:53.965Z,25.83
2022-11-20T15:31:23.290Z,24.35
2022-11-20T15:33:50.183Z,26.67
2022-11-20T15:36:16.862Z,23.05
2022-11-20T15:38:43.313Z,25.52
2022-11-20T15:41:11.109Z,26.08
2022-11-20T15:43:37.612Z,24.30
2022-11-20T15:46:09.656Z,22.65
2022-11-20T15:48:44.635Z,19.38
2022-11-20T15:51:27.390Z,20.52
2022-11-20T15:53:55.511Z,19.10
2022-11-20T15:56:22.209Z,16.20
2022-11-20T15:58:48.971Z,24.73
2022-11-20T16:01:18.384Z,20.67
2022-11-20T16:03:45.247Z,18.52
2022-11-20T16:06:12.234Z,17.20
2022-11-20T16:08:38.589Z,17.65
2022-11-20T16:11:05.359Z,16.33
2022-11-20T16:13:51.543Z,15.52
2022-11-20T16:16:23.753Z,12.73
2022-11-20T16:18:50.886Z,12.05
2022-11-20T16:21:17.312Z,14.90
2022-11-20T16:23:43.978Z,11.20
2022-11-20T16:26:20.534Z,15.50
2022-11-20T16:28:47.222Z,16.48
2022-11-20T16:31:16.804Z,15.00
2022-11-20T16:33:44.247Z,13.77
2022-11-20T16:36:13.100Z,13.00
2022-11-20T16:38:40.148Z,11.75
2022-11-20T16:41:14.145Z,16.23
2022-11-20T16:43:52.557Z,13.50
2022-11-20T16:46:21.109Z,15.07
2022-11-20T16:49:01.633Z,10.30
2022-11-20T16:51:30.563Z,11.57
2022-11-20T16:53:57.587Z,13.90
2022-11-20T16:56:27.452Z,12.32
2022-11-20T16:58:56.402Z,15.85
2022-11-20T17:01:24.567Z,10.35
2022-11-20T17:03:58.453Z,10.43
2022-11-20T17:06:28.280Z,14.23
2022-11-20T17:08:56.273Z,18.58
2022-11-20T17:11:24.637Z,19.30
2022-11-20T17:13:52.049Z,16.65
2022-11-20T17:16:21.301Z,13.82
2022-11-20T17:18:50.025Z,9.20
2022-11-20T17:21:18.954Z,8.32
2022-11-20T17:23:46.782Z,10.25
2022-11-20T17:26:21.937Z,9.68
2022-11-20T17:31:23.088Z,10.55
2022-11-20T17:33:49.439Z,9.52
2022-11-20T17:36:17.357Z,14.63
2022-11-20T17:38:44.539Z,7.38
2022-11-20T17:41:14.400Z,10.88
2022-11-20T17:43:42.683Z,9.00
2022-11-20T17:46:12.166Z,7.32
2022-11-20T17:48:39.983Z,9.10
2022-11-20T17:51:06.530Z,10.65
2022-11-20T17:53:35.238Z,8.57
2022-11-20T17:56:20.841Z,8.32
2022-11-20T18:01:14.316Z,11.07
2022-11-20T18:03:41.200Z,10.40
2022-11-20T18:06:13.487Z,8.93
2022-11-20T18:08:40.289Z,6.20
2022-11-20T18:11:18.629Z,12.18
2022-11-20T18:14:05.510Z,11.57
2022-11-20T18:16:42.856Z,17.52
2022-11-20T18:19:11.767Z,24.45
2022-11-20T18:21:38.602Z,18.10
2022-11-20T18:24:05.631Z,12.55
2022-11-20T18:26:32.048Z,21.08
2022-11-20T18:29:02.141Z,9.95
2022-11-20T18:31:31.189Z,10.95
2022-11-20T18:33:57.829Z,9.02
2022-11-20T18:36:30.199Z,6.82
2022-11-20T18:38:59.908Z,12.15
2022-11-20T18:41:48.774Z,6.30
2022-11-20T18:44:35.870Z,7.32
2022-11-20T18:47:13.755Z,5.63
2022-11-20T18:49:41.692Z,5.03
2022-11-20T18:52:08.282Z,5.88
2022-11-20T18:54:36.848Z,8.05
2022-11-20T18:57:04.966Z,4.35
2022-11-20T18:59:32.209Z,4.13
2022-11-20T19:02:01.726Z,3.45
2022-11-20T19:04:29.522Z,3.92
2022-11-20T19:06:56.328Z,4.03
2022-11-20T19:09:24.030Z,7.10
2022-11-20T19:11:51.618Z,4.53
2022-11-20T19:14:18.115Z,6.00
2022-11-20T19:16:44.841Z,5.40
2022-11-20T19:19:11.724Z,2.55
2022-11-20T19:21:38.333Z,6.95
2022-11-20T19:24:05.479Z,3.17
2022-11-20T19:26:35.387Z,3.88
2022-11-20T19:29:01.899Z,4.45
2022-11-20T19:31:28.670Z,8.50
2022-11-20T19:33:57.175Z,3.70
2022-11-20T19:36:28.310Z,8.50
2022-11-20T19:38:54.991Z,3.72
2022-11-20T19:41:31.278Z,5.25
2022-11-20T19:43:59.384Z,4.65
2022-11-20T19:46:27.315Z,3.67
2022-11-20T19:48:54.585Z,9.70
2022-11-20T19:51:24.260Z,9.32
2022-11-20T19:53:51.077Z,4.38
2022-11-20T19:56:17.659Z,3.42
2022-11-20T19:58:44.560Z,8.50
2022-11-20T20:01:13.960Z,4.47
2022-11-20T20:03:41.423Z,8.85
2022-11-20T20:06:10.363Z,7.13
2022-11-20T20:08:37.910Z,6.38
2022-11-20T20:11:19.089Z,6.15
2022-11-20T20:13:46.787Z,6.18
2022-11-20T20:16:16.015Z,6.18
2022-11-20T20:18:42.961Z,6.55
2022-11-20T20:21:12.163Z,9.02
2022-11-20T20:23:39.156Z,7.38
2022-11-20T20:26:07.508Z,8.00
2022-11-20T20:28:35.136Z,9.77
2022-11-20T20:31:09.681Z,9.15
2022-11-20T20:33:37.629Z,10.95
2022-11-20T20:36:05.530Z,8.70
2022-11-20T20:38:32.297Z,7.60
2022-11-20T20:40:58.873Z,6.05
2022-11-20T20:43:26.039Z,10.88
2022-11-20T20:45:52.913Z,9.20
2022-11-20T20:48:22.105Z,11.65
2022-11-20T20:50:55.720Z,7.90
2022-11-20T20:53:22.944Z,8.68
2022-11-20T20:55:57.627Z,10.68
2022-11-20T20:58:24.568Z,8.40
2022-11-20T21:00:51.714Z,13.57
2022-11-20T21:03:19.024Z,7.85
2022-11-20T21:05:46.598Z,9.35
2022-11-20T21:08:24.224Z,10.00
2022-11-20T21:11:06.198Z,7.60
2022-11-20T21:13:34.138Z,9.20
2022-11-20T21:16:00.925Z,11.50
2022-11-20T21:18:27.686Z,10.82
2022-11-20T21:21:13.420Z,10.02
2022-11-20T21:23:41.898Z,11.52
2022-11-20T21:26:09.459Z,15.70
2022-11-20T21:28:37.565Z,10.70
2022-11-20T21:31:08.407Z,12.23
2022-11-20T21:33:38.836Z,13.90
2022-11-20T21:36:07.982Z,13.93
2022-11-20T21:38:35.476Z,6.05
2022-11-20T21:41:04.037Z,6.45
2022-11-20T21:43:30.887Z,17.60
2022-11-20T21:46:08.871Z,10.48
2022-11-20T21:48:37.150Z,11.23
2022-11-20T21:51:07.677Z,14.18
2022-11-20T21:53:34.685Z,9.60
2022-11-20T21:56:01.634Z,7.93
2022-11-20T21:58:28.411Z,10.02
2022-11-20T22:00:54.946Z,13.27
2022-11-20T22:03:21.511Z,9.02
2022-11-20T22:05:58.371Z,11.48
2022-11-20T22:08:26.303Z,7.93
2022-11-20T22:10:59.773Z,18.90
2022-11-20T22:13:46.030Z,10.35
2022-11-20T22:16:13.515Z,13.00
2022-11-20T22:18:44.750Z,14.98
2022-11-20T22:21:12.295Z,17.70
2022-11-20T22:23:39.384Z,13.48
2022-11-20T22:26:08.616Z,6.43
2022-11-20T22:28:35.980Z,8.20
2022-11-20T22:31:04.355Z,11.27
2022-11-20T22:33:32.183Z,7.95
2022-11-20T22:36:05.565Z,11.60
2022-11-20T22:38:38.876Z,7.32
2022-11-20T22:41:08.149Z,9.05
2022-11-20T22:43:34.762Z,9.55
2022-11-20T22:46:09.082Z,14.90
2022-11-20T22:48:36.940Z,7.35
2022-11-20T22:51:15.104Z,11.00
2022-11-20T22:53:42.735Z,7.53
2022-11-20T22:56:12.306Z,5.55
2022-11-20T22:58:40.516Z,13.82
2022-11-20T23:01:06.829Z,19.45
2022-11-20T23:03:33.467Z,12.07
2022-11-20T23:06:00.270Z,8.75
2022-11-20T23:08:27.354Z,16.95
2022-11-20T23:10:59.042Z,10.70
2022-11-20T23:13:25.643Z,13.20
2022-11-20T23:15:51.997Z,8.27
2022-11-20T23:18:18.522Z,11.95
2022-11-20T23:20:44.982Z,10.75
2022-11-20T23:23:11.432Z,10.90
2022-11-20T23:25:37.775Z,15.35
2022-11-20T23:28:04.560Z,8.60
2022-11-20T23:30:30.919Z,22.33
2022-11-20T23:32:57.380Z,17.90
2022-11-20T23:35:23.900Z,12.57
2022-11-20T23:37:50.400Z,18.85
2022-11-20T23:40:16.971Z,8.70
2022-11-20T23:43:03.402Z,13.55
2022-11-20T23:45:30.263Z,12.23
2022-11-20T23:47:57.397Z,9.52
2022-11-20T23:50:23.910Z,9.30
2022-11-20T23:52:50.300Z,12.00
2022-11-20T23:55:16.758Z,14.50
2022-11-20T23:57:43.147Z,14.20
